createdAt,value
2019-04-07T00:00:05.182Z,27.40
2019-04-07T00:02:34.681Z,29.80
2019-04-07T00:05:10.952Z,25.33
2019-04-07T00:07:35.235Z,26.30
2019-04-07T00:10:05.658Z,29.43
2019-04-07T00:12:34.888Z,29.90
2019-04-07T00:15:04.870Z,27.07
2019-04-07T00:17:34.038Z,27.90
2019-04-07T00:20:04.170Z,26.60
2019-04-07T00:22:33.580Z,26.23
2019-04-07T00:25:02.782Z,24.87
2019-04-07T00:27:32.013Z,29.23
2019-04-07T00:30:01.956Z,28.23
2019-04-07T00:32:31.529Z,29.97
2019-04-07T00:35:00.774Z,27.40
2019-04-07T00:37:31.035Z,25.80
2019-04-07T00:40:00.430Z,25.13
2019-04-07T00:42:30.013Z,28.30
2019-04-07T00:44:59.728Z,25.60
2019-04-07T00:47:29.496Z,27.57
2019-04-07T00:49:58.800Z,26.07
2019-04-07T00:52:28.390Z,25.07
2019-04-07T00:54:57.667Z,24.33
2019-04-07T00:57:27.493Z,24.40
2019-04-07T00:59:56.731Z,25.67
2019-04-07T01:02:26.059Z,21.37
2019-04-07T01:04:55.253Z,23.43
2019-04-07T01:07:24.580Z,23.30
2019-04-07T01:09:54.117Z,26.13
2019-04-07T01:12:23.623Z,25.50
2019-04-07T01:14:53.368Z,24.43
2019-04-07T01:17:22.620Z,24.53
2019-04-07T01:19:51.974Z,23.47
2019-04-07T01:22:21.886Z,23.47
2019-04-07T01:24:51.772Z,25.03
2019-04-07T01:27:21.066Z,26.03
2019-04-07T01:29:50.788Z,25.53
2019-04-07T01:32:20.289Z,24.43
2019-04-07T01:34:49.563Z,22.70
2019-04-07T01:37:18.835Z,20.90
2019-04-07T01:39:48.063Z,22.57
2019-04-07T01:42:23.552Z,23.10
2019-04-07T01:45:15.435Z,25.67
2019-04-07T01:48:01.105Z,27.67
2019-04-07T01:50:42.791Z,27.10
2019-04-07T01:53:34.341Z,26.33
2019-04-07T01:56:24.175Z,28.07
2019-04-07T01:59:15.486Z,28.37
2019-04-07T02:02:02.283Z,29.13
2019-04-07T02:04:41.146Z,29.97
2019-04-07T02:07:32.699Z,30.10
2019-04-07T02:10:20.952Z,28.80
2019-04-07T02:13:03.172Z,25.47
2019-04-07T02:16:00.495Z,26.20
2019-04-07T02:18:51.726Z,28.50
2019-04-07T02:21:43.824Z,27.60
2019-04-07T02:24:33.408Z,28.37
2019-04-07T02:27:17.988Z,25.97
2019-04-07T02:30:05.886Z,25.90
2019-04-07T02:32:54.497Z,26.50
2019-04-07T02:36:14.551Z,21.63
2019-04-07T02:38:56.779Z,24.50
2019-04-07T02:41:57.124Z,22.57
2019-04-07T02:44:35.602Z,22.00
2019-04-07T02:47:12.290Z,21.27
2019-04-07T02:49:51.794Z,24.13
2019-04-07T02:52:50.440Z,24.03
2019-04-07T02:55:33.465Z,22.37
2019-04-07T02:58:15.760Z,22.83
2019-04-07T03:01:02.584Z,21.40
2019-04-07T03:03:54.355Z,21.87
2019-04-07T03:06:47.485Z,24.47
2019-04-07T03:09:44.588Z,25.67
2019-04-07T03:12:31.746Z,23.13
2019-04-07T03:15:22.788Z,22.33
2019-04-07T03:18:14.233Z,23.40
2019-04-07T03:20:57.210Z,20.63
2019-04-07T03:23:44.178Z,23.40
2019-04-07T03:26:35.175Z,21.77
2019-04-07T03:29:21.562Z,26.07
2019-04-07T03:32:10.200Z,26.93
2019-04-07T03:34:52.028Z,30.77
2019-04-07T03:37:47.055Z,27.03
2019-04-07T03:40:28.052Z,28.50
2019-04-07T03:43:19.631Z,26.30
2019-04-07T03:46:00.783Z,32.17
2019-04-07T03:48:51.910Z,28.07
2019-04-07T03:51:28.728Z,32.90
2019-04-07T03:54:24.129Z,31.70
2019-04-07T03:57:11.266Z,29.20
2019-04-07T03:59:59.544Z,26.43
2019-04-07T04:03:00.387Z,29.03
2019-04-07T04:05:41.372Z,31.97
2019-04-07T04:08:20.525Z,32.60
2019-04-07T04:11:15.082Z,32.33
2019-04-07T04:14:03.328Z,29.60
2019-04-07T04:16:37.850Z,30.60
2019-04-07T04:19:07.061Z,26.37
2019-04-07T04:21:36.530Z,28.77
2019-04-07T04:24:06.173Z,26.13
2019-04-07T04:26:35.844Z,33.27
2019-04-07T04:29:05.775Z,31.33
2019-04-07T04:31:35.891Z,29.57
2019-04-07T04:34:05.521Z,29.73
2019-04-07T04:36:35.999Z,27.73
2019-04-07T04:39:08.124Z,31.13
2019-04-07T04:41:38.663Z,25.23
2019-04-07T04:44:08.670Z,27.00
2019-04-07T04:46:38.748Z,29.47
2019-04-07T04:49:08.053Z,30.10
2019-04-07T04:51:39.534Z,31.73
2019-04-07T04:54:08.344Z,28.90
2019-04-07T04:56:37.674Z,26.57
2019-04-07T04:59:07.480Z,25.13
2019-04-07T05:01:37.775Z,27.57
2019-04-07T05:04:07.506Z,28.33
2019-04-07T05:06:36.969Z,26.73
2019-04-07T05:09:09.093Z,29.77
2019-04-07T05:11:38.905Z,30.77
2019-04-07T05:14:08.843Z,28.93
2019-04-07T05:16:38.827Z,31.23
2019-04-07T05:19:08.781Z,30.67
2019-04-07T05:21:38.054Z,29.40
2019-04-07T05:24:07.339Z,30.70
2019-04-07T05:26:36.596Z,30.80
2019-04-07T05:29:05.974Z,29.13
2019-04-07T05:31:35.904Z,27.90
2019-04-07T05:34:05.399Z,29.80
2019-04-07T05:36:34.667Z,27.27
2019-04-07T05:39:06.539Z,32.77
2019-04-07T05:41:36.328Z,33.13
2019-04-07T05:44:06.335Z,32.47
2019-04-07T05:46:38.660Z,34.90
2019-04-07T05:49:06.699Z,33.90
2019-04-07T05:51:35.958Z,32.73
2019-04-07T05:54:05.166Z,29.83
2019-04-07T05:56:34.835Z,23.43
2019-04-07T05:59:04.092Z,26.03
2019-04-07T06:01:33.440Z,28.10
2019-04-07T06:04:03.029Z,30.23
2019-04-07T06:06:33.043Z,29.33
2019-04-07T06:09:02.997Z,31.63
2019-04-07T06:11:35.310Z,34.10
2019-04-07T06:14:04.170Z,36.03
2019-04-07T06:16:33.438Z,34.00
2019-04-07T06:19:05.434Z,30.80
2019-04-07T06:21:33.866Z,32.47
2019-04-07T06:24:03.564Z,29.03
2019-04-07T06:26:33.075Z,31.00
2019-04-07T06:29:02.649Z,25.77
2019-04-07T06:31:33.750Z,26.20
2019-04-07T06:34:03.193Z,30.87
2019-04-07T06:36:32.846Z,31.10
2019-04-07T06:39:02.486Z,33.23
2019-04-07T06:41:33.084Z,32.93
2019-04-07T06:44:10.122Z,31.47
2019-04-07T06:46:46.019Z,28.07
2019-04-07T06:49:30.181Z,26.50
2019-04-07T06:52:27.877Z,29.00
2019-04-07T06:55:17.941Z,30.27
2019-04-07T06:58:15.386Z,26.53
2019-04-07T07:01:03.043Z,31.73
2019-04-07T07:03:43.083Z,26.77
2019-04-07T07:06:37.392Z,29.70
2019-04-07T07:09:27.836Z,32.10
2019-04-07T07:12:22.446Z,28.13
2019-04-07T07:15:14.477Z,28.33
2019-04-07T07:18:08.996Z,27.97
2019-04-07T07:20:55.769Z,32.53
2019-04-07T07:23:28.704Z,29.47
2019-04-07T07:26:00.997Z,32.20
2019-04-07T07:28:29.207Z,33.60
2019-04-07T07:30:58.931Z,31.47
2019-04-07T07:33:28.132Z,32.03
2019-04-07T07:35:58.009Z,34.03
2019-04-07T07:38:31.135Z,34.77
2019-04-07T07:41:01.085Z,35.50
2019-04-07T07:43:30.257Z,33.00
2019-04-07T07:46:00.167Z,35.17
2019-04-07T07:48:30.253Z,33.43
2019-04-07T07:51:00.051Z,31.50
2019-04-07T07:53:29.323Z,33.30
2019-04-07T07:55:58.571Z,34.77
2019-04-07T07:58:29.393Z,32.80
2019-04-07T08:01:00.535Z,32.63
2019-04-07T08:03:30.343Z,31.20
2019-04-07T08:06:01.965Z,34.37
2019-04-07T08:08:30.636Z,36.47
2019-04-07T08:11:02.379Z,35.30
2019-04-07T08:13:31.198Z,33.43
2019-04-07T08:16:00.533Z,34.17
2019-04-07T08:18:29.756Z,34.00
2019-04-07T08:20:59.021Z,30.27
2019-04-07T08:23:28.632Z,31.13
2019-04-07T08:25:59.019Z,27.60
2019-04-07T08:28:28.291Z,30.03
2019-04-07T08:30:57.653Z,29.60
2019-04-07T08:33:28.951Z,29.53
2019-04-07T08:35:58.010Z,28.33
2019-04-07T08:38:28.361Z,26.87
2019-04-07T08:40:57.723Z,24.20
2019-04-07T08:43:27.676Z,26.27
2019-04-07T08:45:57.847Z,20.57
2019-04-07T08:48:27.898Z,24.73
2019-04-07T08:50:59.401Z,20.17
2019-04-07T08:53:28.371Z,20.80
2019-04-07T08:55:57.628Z,20.13
2019-04-07T08:58:29.008Z,18.53
2019-04-07T09:00:58.565Z,20.50
2019-04-07T09:03:28.040Z,17.47
2019-04-07T09:05:57.780Z,17.40
2019-04-07T09:08:28.041Z,16.47
2019-04-07T09:11:09.025Z,17.07
2019-04-07T09:13:38.472Z,17.90
2019-04-07T09:16:25.132Z,20.50
2019-04-07T09:19:26.281Z,18.50
2019-04-07T09:22:14.076Z,17.23
2019-04-07T09:25:03.322Z,16.30
2019-04-07T09:27:41.068Z,15.23
2019-04-07T09:30:36.796Z,13.90
2019-04-07T09:33:24.196Z,13.43
2019-04-07T09:36:07.995Z,13.90
2019-04-07T09:39:01.845Z,15.40
2019-04-07T09:41:43.873Z,12.47
2019-04-07T09:44:25.402Z,17.77
2019-04-07T09:47:16.321Z,15.17
2019-04-07T09:50:15.344Z,18.60
2019-04-07T09:53:02.304Z,15.27
2019-04-07T09:55:48.938Z,14.10
2019-04-07T09:58:35.978Z,15.00
2019-04-07T10:01:28.788Z,14.83
2019-04-07T10:04:23.185Z,13.30
2019-04-07T10:06:59.212Z,13.43
2019-04-07T10:10:07.576Z,16.03
2019-04-07T10:13:12.342Z,14.67
2019-04-07T10:16:07.696Z,12.33
2019-04-07T10:18:59.241Z,12.90
2019-04-07T10:21:47.561Z,13.13
2019-04-07T10:24:42.188Z,14.23
2019-04-07T10:27:29.714Z,14.43
2019-04-07T10:30:28.177Z,13.30
2019-04-07T10:33:31.805Z,16.20
2019-04-07T10:36:20.628Z,12.53
2019-04-07T10:39:08.888Z,13.03
2019-04-07T10:41:57.083Z,15.13
2019-04-07T10:44:43.878Z,13.17
2019-04-07T10:47:29.236Z,13.20
2019-04-07T10:50:16.810Z,11.80
2019-04-07T10:53:00.304Z,13.20
2019-04-07T10:55:55.047Z,12.03
2019-04-07T10:58:49.574Z,13.03
2019-04-07T11:01:34.656Z,13.43
2019-04-07T11:04:16.993Z,13.93
2019-04-07T11:07:04.196Z,13.63
2019-04-07T11:09:53.156Z,11.80
2019-04-07T11:12:39.977Z,10.40
2019-04-07T11:15:47.747Z,8.27
2019-04-07T11:18:38.639Z,8.40
2019-04-07T11:21:22.590Z,11.53
2019-04-07T11:24:01.228Z,9.53
2019-04-07T11:26:52.740Z,9.33
2019-04-07T11:29:44.036Z,9.03
2019-04-07T11:32:29.192Z,8.90
2019-04-07T11:35:17.502Z,9.53
2019-04-07T11:38:05.917Z,9.47
2019-04-07T11:40:48.935Z,9.80
2019-04-07T11:43:25.462Z,11.13
2019-04-07T11:46:19.948Z,8.20
2019-04-07T11:49:14.307Z,8.30
2019-04-07T11:51:49.339Z,8.30
2019-04-07T11:54:27.000Z,6.33
2019-04-07T11:57:06.689Z,7.40
2019-04-07T11:59:57.596Z,6.77
2019-04-07T12:02:41.552Z,6.67
2019-04-07T12:05:27.577Z,5.53
2019-04-07T12:08:15.063Z,4.93
2019-04-07T12:11:05.008Z,5.73
2019-04-07T12:13:56.217Z,4.37
2019-04-07T12:16:45.961Z,4.73
2019-04-07T12:19:24.918Z,4.70
2019-04-07T12:22:10.473Z,4.00
2019-04-07T12:25:07.647Z,4.20
2019-04-07T12:28:08.491Z,3.73
2019-04-07T12:30:58.840Z,4.00
2019-04-07T12:33:51.620Z,4.20
2019-04-07T12:36:37.705Z,3.83
2019-04-07T12:39:35.886Z,4.20
2019-04-07T12:42:26.726Z,4.50
2019-04-07T12:45:23.547Z,4.80
2019-04-07T12:48:11.800Z,4.33
2019-04-07T12:50:56.353Z,4.60
2019-04-07T12:53:45.791Z,4.07
2019-04-07T12:56:48.928Z,4.03
2019-04-07T12:59:53.771Z,3.53
2019-04-07T13:02:54.407Z,4.73
2019-04-07T13:05:45.220Z,4.00
2019-04-07T13:08:32.328Z,4.27
2019-04-07T13:11:40.195Z,4.03
2019-04-07T13:14:25.736Z,3.63
2019-04-07T13:17:19.477Z,4.60
2019-04-07T13:20:08.329Z,4.92
2019-04-07T13:23:13.633Z,4.00
2019-04-07T13:26:02.219Z,4.20
2019-04-07T13:28:39.070Z,4.00
2019-04-07T13:31:30.483Z,3.97
2019-04-07T13:34:24.838Z,3.97
2019-04-07T13:37:04.501Z,4.20
2019-04-07T13:39:58.900Z,3.60
2019-04-07T13:42:50.926Z,3.80
2019-04-07T13:45:46.800Z,4.03
2019-04-07T13:48:35.948Z,3.50
2019-04-07T13:51:32.347Z,3.50
2019-04-07T13:54:21.238Z,4.00
2019-04-07T13:57:07.949Z,3.72
2019-04-07T14:00:04.136Z,3.55
2019-04-07T14:02:50.995Z,3.40
2019-04-07T14:05:57.916Z,3.60
2019-04-07T14:08:46.981Z,3.90
2019-04-07T14:11:49.974Z,4.55
2019-04-07T14:14:17.909Z,4.30
2019-04-07T14:17:05.109Z,3.90
2019-04-07T14:19:54.170Z,4.20
2019-04-07T14:28:49.051Z,3.87
2019-04-07T14:31:40.149Z,4.33
2019-04-07T14:34:21.799Z,3.75
2019-04-07T14:37:26.382Z,3.83
2019-04-07T14:40:08.077Z,4.20
2019-04-07T14:42:53.593Z,4.05
2019-04-07T14:45:48.847Z,3.80
2019-04-07T14:48:34.854Z,4.72
2019-04-07T14:51:25.211Z,4.00
2019-04-07T14:54:15.197Z,3.85
2019-04-07T15:04:45.551Z,4.42
2019-04-07T15:07:34.560Z,3.87
2019-04-07T15:10:15.554Z,3.80
2019-04-07T15:12:46.853Z,4.12
2019-04-07T15:15:17.076Z,3.95
2019-04-07T15:17:47.686Z,3.90
2019-04-07T15:20:27.125Z,3.80
2019-04-07T15:22:59.289Z,3.90
2019-04-07T15:25:28.901Z,3.50
2019-04-07T15:28:01.024Z,3.98
2019-04-07T15:30:31.094Z,3.40
2019-04-07T15:33:02.409Z,4.83
2019-04-07T15:35:31.720Z,4.60
2019-04-07T15:38:01.285Z,3.70
2019-04-07T15:40:33.997Z,3.75
2019-04-07T15:43:04.697Z,4.08
2019-04-07T15:45:33.360Z,4.42
2019-04-07T15:48:02.924Z,4.00
2019-04-07T15:50:32.210Z,4.00
2019-04-07T15:53:01.636Z,4.20
2019-04-07T15:55:43.198Z,4.03
2019-04-07T15:58:03.082Z,3.90
2019-04-07T16:00:34.873Z,4.92
2019-04-07T16:03:04.194Z,4.17
2019-04-07T16:05:41.285Z,3.95
2019-04-07T16:08:04.711Z,3.90
2019-04-07T16:10:34.793Z,4.10
2019-04-07T16:13:04.661Z,3.77
2019-04-07T16:15:34.009Z,4.17
2019-04-07T16:18:05.971Z,3.67
2019-04-07T16:20:37.993Z,3.93
2019-04-07T16:23:05.150Z,3.65
2019-04-07T16:25:34.696Z,3.80
2019-04-07T16:28:03.949Z,3.60
2019-04-07T16:30:34.037Z,4.12
2019-04-07T16:33:05.218Z,3.37
2019-04-07T16:35:34.653Z,3.60
2019-04-07T16:38:05.206Z,3.42
2019-04-07T16:40:40.504Z,4.12
2019-04-07T16:43:14.541Z,6.45
2019-04-07T16:45:40.021Z,4.72
2019-04-07T16:48:09.255Z,4.40
2019-04-07T16:50:38.544Z,5.30
2019-04-07T16:53:09.125Z,4.03
2019-04-07T16:55:41.473Z,4.17
2019-04-07T16:58:11.678Z,4.07
2019-04-07T17:00:41.863Z,4.10
2019-04-07T17:03:11.308Z,3.83
2019-04-07T17:05:41.498Z,4.00
2019-04-07T17:08:10.991Z,3.97
2019-04-07T17:10:41.114Z,5.60
2019-04-07T17:13:18.718Z,4.70
2019-04-07T17:15:42.197Z,16.00
2019-04-07T17:18:38.903Z,5.87
2019-04-07T17:21:12.737Z,5.53
2019-04-07T17:24:32.308Z,5.60
2019-04-07T17:27:03.062Z,3.77
2019-04-07T17:29:33.109Z,3.90
2019-04-07T17:32:11.041Z,4.07
2019-04-07T17:35:18.551Z,4.23
2019-04-07T17:37:47.712Z,10.63
2019-04-07T17:40:20.395Z,13.50
2019-04-07T17:43:51.488Z,8.17
2019-04-07T17:46:32.621Z,7.70
2019-04-07T17:49:14.723Z,5.50
2019-04-07T17:52:00.809Z,5.23
2019-04-07T17:58:29.856Z,5.20
2019-04-07T18:01:11.527Z,5.97
2019-04-07T18:03:59.403Z,4.50
2019-04-07T18:07:03.640Z,6.20
2019-04-07T18:09:37.264Z,5.10
2019-04-07T18:15:59.943Z,5.53
2019-04-07T18:19:03.841Z,5.97
2019-04-07T18:22:04.056Z,5.07
2019-04-07T18:25:10.788Z,5.30
2019-04-07T18:27:54.155Z,4.70
2019-04-07T18:30:48.467Z,5.33
2019-04-07T18:33:39.995Z,5.53
2019-04-07T18:36:34.785Z,4.90
2019-04-07T18:39:18.207Z,6.63
2019-04-07T18:42:12.035Z,4.90
2019-04-07T18:45:12.263Z,6.70
2019-04-07T18:56:27.190Z,5.20
2019-04-07T19:06:48.807Z,5.40
2019-04-07T19:13:26.756Z,5.37
2019-04-07T19:16:13.514Z,7.77
2019-04-07T19:18:52.011Z,5.97
2019-04-07T19:21:49.582Z,5.60
2019-04-07T19:24:51.594Z,6.27
2019-04-07T19:27:34.270Z,6.53
2019-04-07T19:30:19.410Z,5.83
2019-04-07T19:33:14.232Z,5.50
2019-04-07T19:36:05.967Z,5.90
2019-04-07T19:39:06.936Z,6.10
2019-04-07T19:41:48.979Z,6.97
2019-04-07T19:48:13.439Z,7.23
2019-04-07T19:50:59.942Z,6.20
2019-04-07T19:53:43.170Z,6.60
2019-04-07T19:56:25.261Z,7.17
2019-04-07T19:59:13.204Z,6.33
2019-04-07T20:01:59.923Z,7.27
2019-04-07T20:04:48.183Z,8.13
2019-04-07T20:07:33.160Z,7.53
2019-04-07T20:10:24.206Z,7.47
2019-04-07T20:13:20.465Z,7.97
2019-04-07T20:16:12.909Z,6.60
2019-04-07T20:18:51.595Z,7.50
2019-04-07T20:21:38.052Z,7.60
2019-04-07T20:24:11.530Z,10.03
2019-04-07T20:26:58.817Z,7.67
2019-04-07T20:29:46.027Z,7.80
2019-04-07T20:32:37.715Z,7.50
2019-04-07T20:35:26.975Z,6.87
2019-04-07T20:38:27.394Z,7.13
2019-04-07T20:41:43.709Z,7.37
2019-04-07T20:44:32.704Z,7.97
2019-04-07T20:47:17.608Z,6.97
2019-04-07T20:50:00.074Z,7.80
2019-04-07T20:52:40.479Z,7.83
2019-04-07T20:55:26.294Z,7.37
2019-04-07T20:58:42.155Z,7.30
2019-04-07T21:01:35.383Z,8.10
2019-04-07T21:04:23.924Z,7.80
2019-04-07T21:07:18.553Z,7.90
2019-04-07T21:10:09.553Z,7.67
2019-04-07T21:12:55.281Z,7.50
2019-04-07T21:15:47.788Z,7.30
2019-04-07T21:18:39.133Z,7.93
2019-04-07T21:21:51.527Z,8.63
2019-04-07T21:24:31.615Z,7.83
2019-04-07T21:27:17.303Z,7.77
2019-04-07T21:30:04.403Z,7.47
2019-04-07T21:32:58.704Z,7.40
2019-04-07T21:35:43.761Z,8.00
2019-04-07T21:38:29.928Z,7.43
2019-04-07T21:41:28.512Z,7.50
2019-04-07T21:44:20.166Z,7.63
2019-04-07T21:47:08.442Z,7.60
2019-04-07T21:49:42.811Z,7.70
2019-04-07T21:52:31.250Z,9.00
2019-04-07T21:55:21.143Z,9.03
2019-04-07T21:58:12.998Z,8.93
2019-04-07T22:01:18.636Z,9.00
2019-04-07T22:04:10.434Z,8.83
2019-04-07T22:07:01.672Z,9.97
2019-04-07T22:09:51.866Z,9.57
2019-04-07T22:12:25.789Z,9.73
2019-04-07T22:14:52.886Z,9.27
2019-04-07T22:17:23.933Z,9.33
2019-04-07T22:19:53.179Z,9.10
2019-04-07T22:22:24.111Z,10.00
2019-04-07T22:24:53.874Z,9.60
2019-04-07T22:27:26.680Z,8.27
2019-04-07T22:29:54.244Z,9.83
2019-04-07T22:32:24.367Z,9.73
2019-04-07T22:34:54.474Z,9.67
2019-04-07T22:37:23.734Z,10.23
2019-04-07T22:39:52.982Z,10.33
2019-04-07T22:42:22.475Z,8.97
2019-04-07T22:44:53.752Z,8.90
2019-04-07T22:47:23.654Z,9.43
2019-04-07T22:49:52.886Z,12.40
2019-04-07T22:52:22.542Z,8.83
2019-04-07T22:54:51.957Z,8.57
2019-04-07T22:57:21.880Z,8.13
2019-04-07T22:59:51.197Z,9.47
2019-04-07T23:02:20.414Z,7.73
2019-04-07T23:04:50.310Z,9.40
2019-04-07T23:07:20.189Z,8.33
2019-04-07T23:09:49.685Z,9.70
2019-04-07T23:12:19.012Z,7.03
2019-04-07T23:14:48.523Z,7.07
2019-04-07T23:17:17.766Z,7.80
2019-04-07T23:19:46.994Z,7.87
2019-04-07T23:22:16.514Z,8.23
2019-04-07T23:24:45.745Z,8.47
2019-04-07T23:27:14.983Z,9.30
2019-04-07T23:29:44.412Z,10.23
2019-04-07T23:32:13.643Z,10.90
2019-04-07T23:34:43.627Z,12.00
2019-04-07T23:37:13.289Z,13.00
2019-04-07T23:39:42.801Z,14.57
2019-04-07T23:42:12.656Z,13.83
2019-04-07T23:44:41.891Z,15.83
2019-04-07T23:47:11.425Z,13.57
2019-04-07T23:49:40.658Z,14.63
2019-04-07T23:52:09.936Z,15.43
2019-04-07T23:54:39.740Z,15.47
2019-04-07T23:57:09.632Z,13.77
2019-04-07T23:59:38.946Z,14.70
